sensor_id;sensor_type;location;lat;lon;timestamp;temperature;humidity
24436;DHT22;12616;52.470;13.436;2023-01-01T00:00:15;15.20;62.30
24436;DHT22;12616;52.470;13.436;2023-01-01T00:02:43;15.10;78.90
24436;DHT22;12616;52.470;13.436;2023-01-01T00:05:10;15.20;41.00
24436;DHT22;12616;52.470;13.436;2023-01-01T00:07:37;15.20;16.40
24436;DHT22;12616;52.470;13.436;2023-01-01T00:10:04;15.20;1.00
24436;DHT22;12616;52.470;13.436;2023-01-01T00:12:49;15.20;12.10
24436;DHT22;12616;52.470;13.436;2023-01-01T00:15:15;15.20;7.90
24436;DHT22;12616;52.470;13.436;2023-01-01T00:17:44;15.10;14.80
24436;DHT22;12616;52.470;13.436;2023-01-01T00:20:11;15.10;15.40
24436;DHT22;12616;52.470;13.436;2023-01-01T00:22:38;15.10;1.00
24436;DHT22;12616;52.470;13.436;2023-01-01T00:25:05;15.10;1.00
24436;DHT22;12616;52.470;13.436;2023-01-01T00:27:33;15.10;1.00
24436;DHT22;12616;52.470;13.436;2023-01-01T00:29:59;15.30;1.00
24436;DHT22;12616;52.470;13.436;2023-01-01T00:32:26;15.10;99.90
24436;DHT22;12616;52.470;13.436;2023-01-01T00:34:54;15.30;1.00
24436;DHT22;12616;52.470;13.436;2023-01-01T00:37:21;15.40;1.00
24436;DHT22;12616;52.470;13.436;2023-01-01T00:39:48;15.20;1.00
24436;DHT22;12616;52.470;13.436;2023-01-01T00:42:15;15.30;1.00
24436;DHT22;12616;52.470;13.436;2023-01-01T00:44:42;15.20;1.00
24436;DHT22;12616;52.470;13.436;2023-01-01T00:47:09;15.20;1.00
24436;DHT22;12616;52.470;13.436;2023-01-01T00:49:35;15.20;1.00
24436;DHT22;12616;52.470;13.436;2023-01-01T00:52:04;15.20;1.00
24436;DHT22;12616;52.470;13.436;2023-01-01T00:54:31;15.20;1.00
24436;DHT22;12616;52.470;13.436;2023-01-01T00:56:58;15.20;1.00
24436;DHT22;12616;52.470;13.436;2023-01-01T00:59:24;15.30;1.00
24436;DHT22;12616;52.470;13.436;2023-01-01T01:01:51;15.20;1.00
24436;DHT22;12616;52.470;13.436;2023-01-01T01:04:18;15.50;99.90
24436;DHT22;12616;52.470;13.436;2023-01-01T01:06:45;15.20;1.00
24436;DHT22;12616;52.470;13.436;2023-01-01T01:09:13;15.40;99.90
24436;DHT22;12616;52.470;13.436;2023-01-01T01:11:40;15.10;1.00
24436;DHT22;12616;52.470;13.436;2023-01-01T01:14:07;15.10;81.40
24436;DHT22;12616;52.470;13.436;2023-01-01T01:16:34;15.10;1.00
24436;DHT22;12616;52.470;13.436;2023-01-01T01:19:03;15.20;1.00
24436;DHT22;12616;52.470;13.436;2023-01-01T01:21:32;15.70;1.00
24436;DHT22;12616;52.470;13.436;2023-01-01T01:24:00;15.20;1.00
24436;DHT22;12616;52.470;13.436;2023-01-01T01:26:30;15.30;1.00
24436;DHT22;12616;52.470;13.436;2023-01-01T01:28:59;15.20;1.00
24436;DHT22;12616;52.470;13.436;2023-01-01T01:31:28;15.20;1.00
24436;DHT22;12616;52.470;13.436;2023-01-01T01:33:56;15.20;1.00
24436;DHT22;12616;52.470;13.436;2023-01-01T01:36:23;15.20;1.00
24436;DHT22;12616;52.470;13.436;2023-01-01T01:41:20;15.10;1.00
24436;DHT22;12616;52.470;13.436;2023-01-01T01:43:54;15.10;1.00
24436;DHT22;12616;52.470;13.436;2023-01-01T01:46:25;15.10;1.00
24436;DHT22;12616;52.470;13.436;2023-01-01T01:48:56;15.40;99.90
24436;DHT22;12616;52.470;13.436;2023-01-01T01:51:27;15.20;1.00
24436;DHT22;12616;52.470;13.436;2023-01-01T01:53:59;15.20;1.00
24436;DHT22;12616;52.470;13.436;2023-01-01T01:56:33;15.10;1.00
24436;DHT22;12616;52.470;13.436;2023-01-01T01:59:05;15.10;1.00
24436;DHT22;12616;52.470;13.436;2023-01-01T02:01:32;15.20;1.00
24436;DHT22;12616;52.470;13.436;2023-01-01T02:04:00;15.20;1.00
24436;DHT22;12616;52.470;13.436;2023-01-01T02:06:29;15.20;1.00
24436;DHT22;12616;52.470;13.436;2023-01-01T02:08:58;15.10;1.00
24436;DHT22;12616;52.470;13.436;2023-01-01T02:11:26;15.00;1.00
24436;DHT22;12616;52.470;13.436;2023-01-01T02:13:55;15.20;1.00
24436;DHT22;12616;52.470;13.436;2023-01-01T02:16:28;15.10;1.00
24436;DHT22;12616;52.470;13.436;2023-01-01T02:19:02;15.20;1.00
24436;DHT22;12616;52.470;13.436;2023-01-01T02:21:36;15.10;1.00
24436;DHT22;12616;52.470;13.436;2023-01-01T02:24:21;15.00;56.20
24436;DHT22;12616;52.470;13.436;2023-01-01T02:26:57;15.20;1.00
24436;DHT22;12616;52.470;13.436;2023-01-01T02:29:35;15.20;1.00
24436;DHT22;12616;52.470;13.436;2023-01-01T02:32:07;15.50;95.50
24436;DHT22;12616;52.470;13.436;2023-01-01T02:34:36;15.20;1.00
24436;DHT22;12616;52.470;13.436;2023-01-01T02:37:06;15.10;1.00
24436;DHT22;12616;52.470;13.436;2023-01-01T02:39:37;15.00;1.00
24436;DHT22;12616;52.470;13.436;2023-01-01T02:42:06;15.00;1.00
24436;DHT22;12616;52.470;13.436;2023-01-01T02:44:39;15.10;1.00
24436;DHT22;12616;52.470;13.436;2023-01-01T02:47:11;15.00;1.00
24436;DHT22;12616;52.470;13.436;2023-01-01T02:49:45;15.00;84.80
24436;DHT22;12616;52.470;13.436;2023-01-01T02:52:20;15.10;90.20
24436;DHT22;12616;52.470;13.436;2023-01-01T02:54:56;15.10;82.70
24436;DHT22;12616;52.470;13.436;2023-01-01T02:57:30;15.10;1.00
24436;DHT22;12616;52.470;13.436;2023-01-01T03:00:04;15.00;1.00
24436;DHT22;12616;52.470;13.436;2023-01-01T03:02:55;15.00;1.00
24436;DHT22;12616;52.470;13.436;2023-01-01T03:05:30;15.00;92.10
24436;DHT22;12616;52.470;13.436;2023-01-01T03:08:05;15.10;1.00
24436;DHT22;12616;52.470;13.436;2023-01-01T03:10:40;15.00;1.00
24436;DHT22;12616;52.470;13.436;2023-01-01T03:13:14;15.10;79.00
24436;DHT22;12616;52.470;13.436;2023-01-01T03:15:51;15.00;90.90
24436;DHT22;12616;52.470;13.436;2023-01-01T03:18:25;15.40;78.50
24436;DHT22;12616;52.470;13.436;2023-01-01T03:20:54;15.00;1.00
24436;DHT22;12616;52.470;13.436;2023-01-01T03:23:25;15.00;1.00
24436;DHT22;12616;52.470;13.436;2023-01-01T03:25:58;15.00;1.00
24436;DHT22;12616;52.470;13.436;2023-01-01T03:28:27;15.00;1.00
24436;DHT22;12616;52.470;13.436;2023-01-01T03:30:58;14.90;1.00
24436;DHT22;12616;52.470;13.436;2023-01-01T03:33:29;14.90;1.00
24436;DHT22;12616;52.470;13.436;2023-01-01T03:35:59;14.90;1.00
24436;DHT22;12616;52.470;13.436;2023-01-01T03:38:30;14.90;1.00
24436;DHT22;12616;52.470;13.436;2023-01-01T03:41:02;15.00;1.00
24436;DHT22;12616;52.470;13.436;2023-01-01T03:43:37;14.90;1.00
24436;DHT22;12616;52.470;13.436;2023-01-01T03:46:07;14.70;1.00
24436;DHT22;12616;52.470;13.436;2023-01-01T03:48:34;14.60;1.00
24436;DHT22;12616;52.470;13.436;2023-01-01T03:51:24;14.90;1.00
24436;DHT22;12616;52.470;13.436;2023-01-01T03:53:54;14.60;1.00
24436;DHT22;12616;52.470;13.436;2023-01-01T03:56:29;14.60;1.00
24436;DHT22;12616;52.470;13.436;2023-01-01T03:59:08;14.60;1.00
24436;DHT22;12616;52.470;13.436;2023-01-01T04:01:41;14.60;1.00
24436;DHT22;12616;52.470;13.436;2023-01-01T04:04:10;14.50;1.00
24436;DHT22;12616;52.470;13.436;2023-01-01T04:06:38;14.90;99.90
24436;DHT22;12616;52.470;13.436;2023-01-01T04:09:09;14.70;1.00
24436;DHT22;12616;52.470;13.436;2023-01-01T04:11:40;14.70;1.00
24436;DHT22;12616;52.470;13.436;2023-01-01T04:14:26;14.60;1.00
24436;DHT22;12616;52.470;13.436;2023-01-01T04:16:56;14.60;1.00
24436;DHT22;12616;52.470;13.436;2023-01-01T04:19:23;14.50;1.00
24436;DHT22;12616;52.470;13.436;2023-01-01T04:21:50;14.50;1.00
24436;DHT22;12616;52.470;13.436;2023-01-01T04:24:17;14.50;1.00
24436;DHT22;12616;52.470;13.436;2023-01-01T04:26:43;14.50;1.00
24436;DHT22;12616;52.470;13.436;2023-01-01T04:29:10;14.50;1.00
24436;DHT22;12616;52.470;13.436;2023-01-01T04:31:37;14.50;1.00
24436;DHT22;12616;52.470;13.436;2023-01-01T04:34:05;14.40;1.00
24436;DHT22;12616;52.470;13.436;2023-01-01T04:36:32;14.50;1.00
24436;DHT22;12616;52.470;13.436;2023-01-01T04:39:00;14.50;1.00
24436;DHT22;12616;52.470;13.436;2023-01-01T04:41:27;14.50;1.00
24436;DHT22;12616;52.470;13.436;2023-01-01T04:43:53;14.50;1.00
24436;DHT22;12616;52.470;13.436;2023-01-01T04:46:21;14.50;1.00
24436;DHT22;12616;52.470;13.436;2023-01-01T04:48:48;14.50;1.00
24436;DHT22;12616;52.470;13.436;2023-01-01T04:51:18;14.50;1.00
24436;DHT22;12616;52.470;13.436;2023-01-01T04:53:45;14.50;1.00
24436;DHT22;12616;52.470;13.436;2023-01-01T04:56:14;14.40;1.00
24436;DHT22;12616;52.470;13.436;2023-01-01T04:58:42;14.50;1.00
24436;DHT22;12616;52.470;13.436;2023-01-01T05:01:14;14.50;1.00
24436;DHT22;12616;52.470;13.436;2023-01-01T05:03:41;14.50;1.00
24436;DHT22;12616;52.470;13.436;2023-01-01T05:06:10;14.50;1.00
24436;DHT22;12616;52.470;13.436;2023-01-01T05:08:39;14.50;1.00
24436;DHT22;12616;52.470;13.436;2023-01-01T05:11:08;14.80;79.70
24436;DHT22;12616;52.470;13.436;2023-01-01T05:13:36;14.50;1.00
24436;DHT22;12616;52.470;13.436;2023-01-01T05:16:04;14.50;1.00
24436;DHT22;12616;52.470;13.436;2023-01-01T05:18:32;14.50;1.00
24436;DHT22;12616;52.470;13.436;2023-01-01T05:20:59;14.70;1.00
24436;DHT22;12616;52.470;13.436;2023-01-01T05:23:27;14.50;1.00
24436;DHT22;12616;52.470;13.436;2023-01-01T05:25:56;14.60;1.00
24436;DHT22;12616;52.470;13.436;2023-01-01T05:28:23;14.20;94.40
24436;DHT22;12616;52.470;13.436;2023-01-01T05:30:50;14.50;1.00
24436;DHT22;12616;52.470;13.436;2023-01-01T05:33:18;14.70;1.00
24436;DHT22;12616;52.470;13.436;2023-01-01T05:35:45;14.40;1.00
24436;DHT22;12616;52.470;13.436;2023-01-01T05:38:11;14.40;1.00
24436;DHT22;12616;52.470;13.436;2023-01-01T05:40:38;14.50;1.00
24436;DHT22;12616;52.470;13.436;2023-01-01T05:43:07;14.40;1.00
24436;DHT22;12616;52.470;13.436;2023-01-01T05:45:33;14.50;1.00
24436;DHT22;12616;52.470;13.436;2023-01-01T05:48:00;14.50;1.00
24436;DHT22;12616;52.470;13.436;2023-01-01T05:50:28;14.40;1.00
24436;DHT22;12616;52.470;13.436;2023-01-01T05:52:55;14.60;99.90
24436;DHT22;12616;52.470;13.436;2023-01-01T05:55:22;14.20;1.00
24436;DHT22;12616;52.470;13.436;2023-01-01T05:57:49;14.20;1.00
24436;DHT22;12616;52.470;13.436;2023-01-01T06:00:17;14.20;1.00
24436;DHT22;12616;52.470;13.436;2023-01-01T06:02:44;14.10;1.00
24436;DHT22;12616;52.470;13.436;2023-01-01T06:05:11;14.00;1.00
24436;DHT22;12616;52.470;13.436;2023-01-01T06:07:38;14.10;1.00
24436;DHT22;12616;52.470;13.436;2023-01-01T06:10:05;14.10;1.00
24436;DHT22;12616;52.470;13.436;2023-01-01T06:12:32;14.10;1.00
24436;DHT22;12616;52.470;13.436;2023-01-01T06:14:58;14.00;99.90
24436;DHT22;12616;52.470;13.436;2023-01-01T06:17:27;14.00;1.00
24436;DHT22;12616;52.470;13.436;2023-01-01T06:19:53;14.10;1.00
24436;DHT22;12616;52.470;13.436;2023-01-01T06:22:20;14.10;1.00
24436;DHT22;12616;52.470;13.436;2023-01-01T06:24:47;14.00;88.40
24436;DHT22;12616;52.470;13.436;2023-01-01T06:27:14;14.10;1.00
24436;DHT22;12616;52.470;13.436;2023-01-01T06:29:40;14.10;1.00
24436;DHT22;12616;52.470;13.436;2023-01-01T06:32:07;14.10;1.00
24436;DHT22;12616;52.470;13.436;2023-01-01T06:34:35;14.00;1.00
24436;DHT22;12616;52.470;13.436;2023-01-01T06:37:02;14.00;1.00
24436;DHT22;12616;52.470;13.436;2023-01-01T06:39:29;14.10;1.00
24436;DHT22;12616;52.470;13.436;2023-01-01T06:41:56;14.20;1.00
24436;DHT22;12616;52.470;13.436;2023-01-01T06:44:22;14.20;1.00
24436;DHT22;12616;52.470;13.436;2023-01-01T06:46:49;14.20;1.00
24436;DHT22;12616;52.470;13.436;2023-01-01T06:49:16;14.30;1.00
24436;DHT22;12616;52.470;13.436;2023-01-01T06:51:44;14.20;1.00
24436;DHT22;12616;52.470;13.436;2023-01-01T06:54:11;14.20;1.00
24436;DHT22;12616;52.470;13.436;2023-01-01T06:56:38;14.30;1.00
24436;DHT22;12616;52.470;13.436;2023-01-01T06:59:05;14.40;1.00
24436;DHT22;12616;52.470;13.436;2023-01-01T07:01:33;14.40;1.00
24436;DHT22;12616;52.470;13.436;2023-01-01T07:04:02;14.30;1.00
24436;DHT22;12616;52.470;13.436;2023-01-01T07:06:31;14.30;1.00
24436;DHT22;12616;52.470;13.436;2023-01-01T07:09:00;14.30;1.00
24436;DHT22;12616;52.470;13.436;2023-01-01T07:11:27;14.30;1.00
24436;DHT22;12616;52.470;13.436;2023-01-01T07:13:54;14.30;1.00
24436;DHT22;12616;52.470;13.436;2023-01-01T07:16:21;14.30;1.00
24436;DHT22;12616;52.470;13.436;2023-01-01T07:18:48;14.30;1.00
24436;DHT22;12616;52.470;13.436;2023-01-01T07:21:25;14.60;90.90
24436;DHT22;12616;52.470;13.436;2023-01-01T07:23:53;14.30;1.00
24436;DHT22;12616;52.470;13.436;2023-01-01T07:26:23;14.00;42.90
24436;DHT22;12616;52.470;13.436;2023-01-01T07:28:49;14.30;1.00
24436;DHT22;12616;52.470;13.436;2023-01-01T07:31:16;14.30;1.00
24436;DHT22;12616;52.470;13.436;2023-01-01T07:33:43;14.40;1.00
24436;DHT22;12616;52.470;13.436;2023-01-01T07:36:10;14.40;1.00
24436;DHT22;12616;52.470;13.436;2023-01-01T07:38:37;14.30;1.00
24436;DHT22;12616;52.470;13.436;2023-01-01T07:41:04;14.30;1.00
24436;DHT22;12616;52.470;13.436;2023-01-01T07:43:32;14.40;1.00
24436;DHT22;12616;52.470;13.436;2023-01-01T07:45:59;14.40;1.00
24436;DHT22;12616;52.470;13.436;2023-01-01T07:48:26;14.40;1.00
24436;DHT22;12616;52.470;13.436;2023-01-01T07:50:53;14.40;1.00
24436;DHT22;12616;52.470;13.436;2023-01-01T07:53:20;14.40;1.00
24436;DHT22;12616;52.470;13.436;2023-01-01T07:55:47;14.40;1.00
24436;DHT22;12616;52.470;13.436;2023-01-01T07:58:14;14.40;1.00
24436;DHT22;12616;52.470;13.436;2023-01-01T08:00:45;14.40;1.00
24436;DHT22;12616;52.470;13.436;2023-01-01T08:03:12;14.40;1.00
24436;DHT22;12616;52.470;13.436;2023-01-01T08:05:39;14.40;1.00
24436;DHT22;12616;52.470;13.436;2023-01-01T08:08:06;14.50;1.00
24436;DHT22;12616;52.470;13.436;2023-01-01T08:10:33;14.50;1.00
24436;DHT22;12616;52.470;13.436;2023-01-01T08:15:27;14.50;1.00
24436;DHT22;12616;52.470;13.436;2023-01-01T08:17:56;14.50;1.00
24436;DHT22;12616;52.470;13.436;2023-01-01T08:20:23;14.50;1.00
24436;DHT22;12616;52.470;13.436;2023-01-01T08:22:50;14.50;1.00
24436;DHT22;12616;52.470;13.436;2023-01-01T08:30:14;14.60;1.00
24436;DHT22;12616;52.470;13.436;2023-01-01T08:32:41;14.60;1.00
24436;DHT22;12616;52.470;13.436;2023-01-01T08:35:13;14.60;1.00
24436;DHT22;12616;52.470;13.436;2023-01-01T08:37:55;14.60;1.00
24436;DHT22;12616;52.470;13.436;2023-01-01T08:40:22;14.70;73.60
24436;DHT22;12616;52.470;13.436;2023-01-01T08:42:49;14.60;1.00
24436;DHT22;12616;52.470;13.436;2023-01-01T08:45:16;14.80;94.00
24436;DHT22;12616;52.470;13.436;2023-01-01T08:47:43;14.60;1.00
24436;DHT22;12616;52.470;13.436;2023-01-01T08:50:09;14.70;1.00
24436;DHT22;12616;52.470;13.436;2023-01-01T08:52:38;14.70;1.00
24436;DHT22;12616;52.470;13.436;2023-01-01T08:55:05;14.70;1.00
24436;DHT22;12616;52.470;13.436;2023-01-01T08:57:32;14.70;1.00
24436;DHT22;12616;52.470;13.436;2023-01-01T08:59:59;14.80;1.00
24436;DHT22;12616;52.470;13.436;2023-01-01T09:02:26;14.80;1.00
24436;DHT22;12616;52.470;13.436;2023-01-01T09:04:52;14.80;1.00
24436;DHT22;12616;52.470;13.436;2023-01-01T09:07:19;14.90;1.00
24436;DHT22;12616;52.470;13.436;2023-01-01T09:09:47;14.80;1.00
24436;DHT22;12616;52.470;13.436;2023-01-01T09:12:15;14.80;1.00
24436;DHT22;12616;52.470;13.436;2023-01-01T09:14:45;14.80;1.00
24436;DHT22;12616;52.470;13.436;2023-01-01T09:17:13;14.80;1.00
24436;DHT22;12616;52.470;13.436;2023-01-01T09:19:39;14.80;1.00
24436;DHT22;12616;52.470;13.436;2023-01-01T09:22:08;14.50;73.30
24436;DHT22;12616;52.470;13.436;2023-01-01T09:24:34;14.80;1.00
24436;DHT22;12616;52.470;13.436;2023-01-01T09:27:03;14.80;1.00
24436;DHT22;12616;52.470;13.436;2023-01-01T09:29:29;14.80;1.00
24436;DHT22;12616;52.470;13.436;2023-01-01T09:31:56;14.80;1.00
24436;DHT22;12616;52.470;13.436;2023-01-01T09:34:23;14.80;1.00
24436;DHT22;12616;52.470;13.436;2023-01-01T09:36:50;14.80;1.00
24436;DHT22;12616;52.470;13.436;2023-01-01T09:39:17;14.80;1.00
24436;DHT22;12616;52.470;13.436;2023-01-01T09:45:16;14.90;1.00
24436;DHT22;12616;52.470;13.436;2023-01-01T09:47:46;14.90;1.00
24436;DHT22;12616;52.470;13.436;2023-01-01T09:50:19;14.90;1.00
24436;DHT22;12616;52.470;13.436;2023-01-01T09:52:51;15.00;1.00
24436;DHT22;12616;52.470;13.436;2023-01-01T09:55:25;15.10;92.30
24436;DHT22;12616;52.470;13.436;2023-01-01T09:57:54;15.10;1.00
24436;DHT22;12616;52.470;13.436;2023-01-01T10:00:22;15.10;1.00
24436;DHT22;12616;52.470;13.436;2023-01-01T10:03:07;14.60;69.40
24436;DHT22;12616;52.470;13.436;2023-01-01T10:05:45;15.10;1.00
24436;DHT22;12616;52.470;13.436;2023-01-01T10:08:20;14.80;1.00
24436;DHT22;12616;52.470;13.436;2023-01-01T10:10:53;15.10;1.00
24436;DHT22;12616;52.470;13.436;2023-01-01T10:13:25;15.20;1.00
24436;DHT22;12616;52.470;13.436;2023-01-01T10:15:58;15.20;1.00
24436;DHT22;12616;52.470;13.436;2023-01-01T10:18:29;15.30;1.00
24436;DHT22;12616;52.470;13.436;2023-01-01T10:21:01;15.30;1.00
24436;DHT22;12616;52.470;13.436;2023-01-01T10:23:39;16.20;73.00
24436;DHT22;12616;52.470;13.436;2023-01-01T10:26:11;15.40;1.00
24436;DHT22;12616;52.470;13.436;2023-01-01T10:28:45;15.30;1.00
24436;DHT22;12616;52.470;13.436;2023-01-01T10:31:19;15.40;1.00
24436;DHT22;12616;52.470;13.436;2023-01-01T10:33:46;15.40;1.00
24436;DHT22;12616;52.470;13.436;2023-01-01T10:36:15;15.50;1.00
24436;DHT22;12616;52.470;13.436;2023-01-01T10:38:43;15.40;1.00
24436;DHT22;12616;52.470;13.436;2023-01-01T10:43:38;15.40;1.00
24436;DHT22;12616;52.470;13.436;2023-01-01T10:46:05;15.40;1.00
24436;DHT22;12616;52.470;13.436;2023-01-01T10:48:33;15.40;1.00
24436;DHT22;12616;52.470;13.436;2023-01-01T10:51:02;15.40;1.00
24436;DHT22;12616;52.470;13.436;2023-01-01T10:53:31;15.40;1.00
24436;DHT22;12616;52.470;13.436;2023-01-01T10:56:05;15.40;1.00
24436;DHT22;12616;52.470;13.436;2023-01-01T10:58:36;15.40;1.00
24436;DHT22;12616;52.470;13.436;2023-01-01T11:01:04;15.30;1.00
24436;DHT22;12616;52.470;13.436;2023-01-01T11:03:33;15.40;1.00
24436;DHT22;12616;52.470;13.436;2023-01-01T11:06:17;15.40;1.00
24436;DHT22;12616;52.470;13.436;2023-01-01T11:08:47;15.80;43.20
24436;DHT22;12616;52.470;13.436;2023-01-01T11:11:25;15.40;1.00
24436;DHT22;12616;52.470;13.436;2023-01-01T11:13:55;15.50;1.00
24436;DHT22;12616;52.470;13.436;2023-01-01T11:16:23;15.50;1.00
24436;DHT22;12616;52.470;13.436;2023-01-01T11:19:00;15.50;1.00
24436;DHT22;12616;52.470;13.436;2023-01-01T11:21:27;15.20;39.60
24436;DHT22;12616;52.470;13.436;2023-01-01T11:24:10;15.50;1.00
24436;DHT22;12616;52.470;13.436;2023-01-01T11:26:37;15.70;36.70
24436;DHT22;12616;52.470;13.436;2023-01-01T11:29:17;15.50;1.00
24436;DHT22;12616;52.470;13.436;2023-01-01T11:31:46;15.50;1.00
24436;DHT22;12616;52.470;13.436;2023-01-01T11:34:30;15.50;1.00
24436;DHT22;12616;52.470;13.436;2023-01-01T11:37:16;15.20;33.00
24436;DHT22;12616;52.470;13.436;2023-01-01T11:39:47;15.50;1.00
24436;DHT22;12616;52.470;13.436;2023-01-01T11:42:17;15.50;1.00
24436;DHT22;12616;52.470;13.436;2023-01-01T11:44:45;15.60;1.00
24436;DHT22;12616;52.470;13.436;2023-01-01T11:47:25;15.60;1.00
24436;DHT22;12616;52.470;13.436;2023-01-01T11:49:57;15.60;1.00
24436;DHT22;12616;52.470;13.436;2023-01-01T11:52:26;15.60;1.00
24436;DHT22;12616;52.470;13.436;2023-01-01T11:55:01;15.60;1.00
24436;DHT22;12616;52.470;13.436;2023-01-01T11:57:29;15.50;1.00
24436;DHT22;12616;52.470;13.436;2023-01-01T12:00:04;15.50;1.00
24436;DHT22;12616;52.470;13.436;2023-01-01T12:02:35;15.50;1.00
24436;DHT22;12616;52.470;13.436;2023-01-01T12:05:12;15.60;1.00
24436;DHT22;12616;52.470;13.436;2023-01-01T12:07:42;15.60;1.00
24436;DHT22;12616;52.470;13.436;2023-01-01T12:10:16;15.50;1.00
24436;DHT22;12616;52.470;13.436;2023-01-01T12:12:48;15.50;1.00
24436;DHT22;12616;52.470;13.436;2023-01-01T12:15:20;15.20;1.00
24436;DHT22;12616;52.470;13.436;2023-01-01T12:17:54;15.60;1.00
24436;DHT22;12616;52.470;13.436;2023-01-01T12:20:28;15.60;1.00
24436;DHT22;12616;52.470;13.436;2023-01-01T12:22:59;15.50;1.00
24436;DHT22;12616;52.470;13.436;2023-01-01T12:25:32;15.30;58.00
24436;DHT22;12616;52.470;13.436;2023-01-01T12:28:12;15.50;1.00
24436;DHT22;12616;52.470;13.436;2023-01-01T12:30:52;15.50;1.00
24436;DHT22;12616;52.470;13.436;2023-01-01T12:33:38;15.60;1.00
24436;DHT22;12616;52.470;13.436;2023-01-01T12:36:20;15.50;1.00
24436;DHT22;12616;52.470;13.436;2023-01-01T12:42:14;15.50;1.00
24436;DHT22;12616;52.470;13.436;2023-01-01T12:44:50;15.40;1.00
24436;DHT22;12616;52.470;13.436;2023-01-01T12:47:29;15.40;1.00
24436;DHT22;12616;52.470;13.436;2023-01-01T12:50:06;15.40;1.00
24436;DHT22;12616;52.470;13.436;2023-01-01T12:52:42;15.40;1.00
24436;DHT22;12616;52.470;13.436;2023-01-01T12:58:20;15.30;1.00
24436;DHT22;12616;52.470;13.436;2023-01-01T13:00:53;15.20;1.00
24436;DHT22;12616;52.470;13.436;2023-01-01T13:03:29;15.30;1.00
24436;DHT22;12616;52.470;13.436;2023-01-01T13:05:58;15.20;1.00
24436;DHT22;12616;52.470;13.436;2023-01-01T13:08:27;15.20;1.00
24436;DHT22;12616;52.470;13.436;2023-01-01T13:10:55;15.20;1.00
24436;DHT22;12616;52.470;13.436;2023-01-01T13:13:23;15.20;1.00
24436;DHT22;12616;52.470;13.436;2023-01-01T13:15:52;15.30;95.00
24436;DHT22;12616;52.470;13.436;2023-01-01T13:18:25;15.20;1.00
24436;DHT22;12616;52.470;13.436;2023-01-01T13:21:19;15.40;2.00
24436;DHT22;12616;52.470;13.436;2023-01-01T13:23:49;15.10;1.00
24436;DHT22;12616;52.470;13.436;2023-01-01T13:26:39;15.20;99.90
24436;DHT22;12616;52.470;13.436;2023-01-01T13:29:24;15.00;1.00
24436;DHT22;12616;52.470;13.436;2023-01-01T13:32:07;15.00;1.00
24436;DHT22;12616;52.470;13.436;2023-01-01T13:37:41;15.00;1.00
24436;DHT22;12616;52.470;13.436;2023-01-01T13:40:49;15.00;1.00
24436;DHT22;12616;52.470;13.436;2023-01-01T13:43:30;14.90;1.00
24436;DHT22;12616;52.470;13.436;2023-01-01T13:46:00;14.90;1.00
24436;DHT22;12616;52.470;13.436;2023-01-01T13:48:48;14.90;1.00
24436;DHT22;12616;52.470;13.436;2023-01-01T13:51:29;14.80;24.40
24436;DHT22;12616;52.470;13.436;2023-01-01T13:54:16;14.60;99.90
24436;DHT22;12616;52.470;13.436;2023-01-01T13:56:53;14.80;1.00
24436;DHT22;12616;52.470;13.436;2023-01-01T13:59:46;14.80;1.00
24436;DHT22;12616;52.470;13.436;2023-01-01T14:02:24;14.80;1.00
24436;DHT22;12616;52.470;13.436;2023-01-01T14:04:54;14.80;1.00
24436;DHT22;12616;52.470;13.436;2023-01-01T14:07:31;14.90;99.90
24436;DHT22;12616;52.470;13.436;2023-01-01T14:10:17;14.60;99.90
24436;DHT22;12616;52.470;13.436;2023-01-01T14:12:46;14.70;1.00
24436;DHT22;12616;52.470;13.436;2023-01-01T14:15:23;14.70;1.00
24436;DHT22;12616;52.470;13.436;2023-01-01T14:17:51;14.70;1.00
24436;DHT22;12616;52.470;13.436;2023-01-01T14:20:21;14.70;1.00
24436;DHT22;12616;52.470;13.436;2023-01-01T14:22:49;14.70;1.00
24436;DHT22;12616;52.470;13.436;2023-01-01T14:25:24;14.60;99.90
24436;DHT22;12616;52.470;13.436;2023-01-01T14:27:56;14.70;1.00
24436;DHT22;12616;52.470;13.436;2023-01-01T14:30:24;14.60;1.00
24436;DHT22;12616;52.470;13.436;2023-01-01T14:32:58;14.60;1.00
24436;DHT22;12616;52.470;13.436;2023-01-01T14:35:26;14.50;1.00
24436;DHT22;12616;52.470;13.436;2023-01-01T14:37:53;14.50;4.00
24436;DHT22;12616;52.470;13.436;2023-01-01T14:40:21;14.50;17.40
24436;DHT22;12616;52.470;13.436;2023-01-01T14:43:03;14.50;27.10
24436;DHT22;12616;52.470;13.436;2023-01-01T14:45:34;14.40;54.00
24436;DHT22;12616;52.470;13.436;2023-01-01T14:48:01;14.40;97.20
24436;DHT22;12616;52.470;13.436;2023-01-01T14:50:31;14.50;99.90
24436;DHT22;12616;52.470;13.436;2023-01-01T14:53:02;14.30;99.90
24436;DHT22;12616;52.470;13.436;2023-01-01T14:55:33;14.30;99.90
24436;DHT22;12616;52.470;13.436;2023-01-01T14:58:02;14.10;99.90
24436;DHT22;12616;52.470;13.436;2023-01-01T15:00:30;14.30;99.90
24436;DHT22;12616;52.470;13.436;2023-01-01T15:03:11;14.20;99.90
24436;DHT22;12616;52.470;13.436;2023-01-01T15:05:39;14.20;99.90
24436;DHT22;12616;52.470;13.436;2023-01-01T15:08:21;14.10;99.90
24436;DHT22;12616;52.470;13.436;2023-01-01T15:10:49;14.10;99.90
24436;DHT22;12616;52.470;13.436;2023-01-01T15:13:19;14.00;99.90
24436;DHT22;12616;52.470;13.436;2023-01-01T15:15:47;13.70;1.00
24436;DHT22;12616;52.470;13.436;2023-01-01T15:18:40;13.90;99.90
24436;DHT22;12616;52.470;13.436;2023-01-01T15:21:12;14.10;1.00
24436;DHT22;12616;52.470;13.436;2023-01-01T15:23:47;13.90;1.00
24436;DHT22;12616;52.470;13.436;2023-01-01T15:26:25;13.80;1.00
24436;DHT22;12616;52.470;13.436;2023-01-01T15:28:55;13.80;1.00
24436;DHT22;12616;52.470;13.436;2023-01-01T15:31:22;13.90;1.00
24436;DHT22;12616;52.470;13.436;2023-01-01T15:33:58;13.80;1.00
24436;DHT22;12616;52.470;13.436;2023-01-01T15:36:25;13.80;1.00
24436;DHT22;12616;52.470;13.436;2023-01-01T15:38:52;13.90;1.00
24436;DHT22;12616;52.470;13.436;2023-01-01T15:41:24;13.90;1.00
24436;DHT22;12616;52.470;13.436;2023-01-01T15:43:51;13.80;1.00
24436;DHT22;12616;52.470;13.436;2023-01-01T15:46:33;13.90;1.00
24436;DHT22;12616;52.470;13.436;2023-01-01T15:49:00;13.80;1.00
24436;DHT22;12616;52.470;13.436;2023-01-01T15:51:27;13.70;1.00
24436;DHT22;12616;52.470;13.436;2023-01-01T15:53:56;13.70;99.90
24436;DHT22;12616;52.470;13.436;2023-01-01T15:56:25;13.70;1.00
24436;DHT22;12616;52.470;13.436;2023-01-01T15:58:55;13.60;94.40
24436;DHT22;12616;52.470;13.436;2023-01-01T16:01:27;13.60;20.50
24436;DHT22;12616;52.470;13.436;2023-01-01T16:04:01;13.60;24.70
24436;DHT22;12616;52.470;13.436;2023-01-01T16:06:28;13.50;99.90
24436;DHT22;12616;52.470;13.436;2023-01-01T16:08:55;13.50;99.90
24436;DHT22;12616;52.470;13.436;2023-01-01T16:11:22;13.40;99.90
24436;DHT22;12616;52.470;13.436;2023-01-01T16:13:49;13.30;99.90